Time;durP1;ratioP1;P1;durP2;ratioP2;P2;SDS_P1;SDS_P2;PMS_P1;PMS_P2;Temp;Humidity;BMP_temperature;BMP_pressure;BME280_temperature;BME280_humidity;BME280_pressure;Samples;Min_cycle;Max_cycle;Signal;HPM_P1;HPM_P2
2021/09/19 00:00:10;;;;;;;;;;;;;;;;;;2085902;28;1033;-76
2021/09/19 00:01:11;;;;;;;;;;;;;;;;;;2082238;28;1082;-76
2021/09/19 00:02:12;;;;;;;;;;;;;;;;;;2086537;28;1369;-76
2021/09/19 00:03:12;;;;;;;;;;;;;;;;;;2085173;28;1204;-76
2021/09/19 00:04:13;;;;;;;;;;;;;;;;;;2088192;28;989;-76
2021/09/19 00:05:13;;;;;;;;;;;;;;;;;;2088341;28;1123;-75
2021/09/19 00:06:15;;;;;;;;;;;;;;;;;;2087550;28;1062;-76
2021/09/19 00:07:15;;;;;;;;;;;;;;;;;;2087445;28;1065;-76
2021/09/19 00:08:16;;;;;;;;;;;;;;;;;;2087687;28;1327;-76
2021/09/19 00:09:16;;;;;;;;;;;;;;;;;;2088651;28;1933;-76
2021/09/19 00:10:17;;;;;;;;;;;;;;;;;;2085410;28;3869;-76
2021/09/19 00:11:17;;;;;;;;;;;;;;;;;;2083445;28;1306;-75
2021/09/19 00:12:18;;;;;;;;;;;;;;;;;;2088295;28;1351;-76
2021/09/19 00:13:19;;;;;;;;;;;;;;;;;;2086011;28;1110;-75
2021/09/19 00:14:20;;;;;;;;;;;;;;;;;;2089425;28;1053;-75
2021/09/19 00:15:20;;;;;;;;;;;;;;;;;;2085871;28;2106;-75
2021/09/19 00:16:21;;;;;;;;;;;;;;;;;;2076431;28;1185;-75
2021/09/19 00:17:21;;;;;;;;;;;;;;;;;;2075990;28;1148;-76
2021/09/19 00:18:22;;;;;;;;;;;;;;;;;;2076909;28;1014;-75
2021/09/19 00:19:22;;;;;;;;;;;;;;;;;;2076757;28;1154;-76
2021/09/19 00:20:23;;;;;;;;;;;;;;;;;;2072532;28;1226;-76
2021/09/19 00:21:24;;;;;;;;;;;;;;;;;;2075513;28;1125;-76
2021/09/19 00:22:25;;;;;;;;;;;;;;;;;;2075731;28;1744;-76
2021/09/19 00:23:25;;;;;;;;;;;;;;;;;;2074900;28;1162;-76
2021/09/19 00:24:26;;;;;;;;;;;;;;;;;;2076967;28;1022;-76
2021/09/19 00:25:26;;;;;;;;;;;;;;;;;;2075668;28;1122;-76
2021/09/19 00:26:27;;;;;;;;;;;;;;;;;;2076533;28;991;-76
2021/09/19 00:27:27;;;;;;;;;;;;;;;;;;2078029;28;1298;-76
2021/09/19 00:28:28;;;;;;;;;;;;;;;;;;2077407;28;1015;-75
2021/09/19 00:29:28;;;;;;;;;;;;;;;;;;2077363;28;1902;-76
2021/09/19 00:30:29;;;;;;;;;;;;;;;;;;2077778;28;1069;-76
2021/09/19 00:31:30;;;;;;;;;;;;;;;;;;2077433;28;1034;-76
2021/09/19 00:32:31;;;;;;;;;;;;;;;;;;2074004;28;1279;-75
2021/09/19 00:33:31;;;;;;;;;;;;;;;;;;2077125;28;1105;-75
2021/09/19 00:34:32;;;;;;;;;;;;;;;;;;2078258;28;1046;-75
2021/09/19 00:35:32;;;;;;;;;;;;;;;;;;2079135;28;1123;-75
2021/09/19 00:36:33;;;;;;;;;;;;;;;;;;2078463;28;1058;-76
2021/09/19 00:37:33;;;;;;;;;;;;;;;;;;2078292;28;1409;-76
2021/09/19 00:38:35;;;;;;;;;;;;;;;;;;2079215;28;1069;-76
2021/09/19 00:39:35;;;;;;;;;;;;;;;;;;2079659;28;1100;-76
2021/09/19 00:40:36;;;;;;;;;;;;;;;;;;2079898;28;1038;-75
2021/09/19 00:41:39;;;;;;;;;;;;;;;;;;2079637;28;1116;-76
2021/09/19 00:42:39;;;;;;;;;;;;;;;;;;2076781;28;1278;-76
2021/09/19 00:43:40;;;;;;;;;;;;;;;;;;2079731;28;1490;-76
2021/09/19 00:44:40;;;;;;;;;;;;;;;;;;2079137;28;1178;-76
2021/09/19 00:45:41;;;;;;;;;;;;;;;;;;2080749;28;1070;-75
2021/09/19 00:46:41;;;;;;;;;;;;;;;;;;2080267;28;1118;-75
2021/09/19 00:47:42;;;;;;;;;;;;;;;;;;2078287;28;1025;-76
2021/09/19 00:48:42;;;;;;;;;;;;;;;;;;2081386;28;1061;-76
2021/09/19 00:49:44;;;;;;;;;;;;;;;;;;2081415;28;2001;-75
2021/09/19 00:50:44;;;;;;;;;;;;;;;;;;2081741;28;1329;-76
2021/09/19 00:51:45;;;;;;;;;;;;;;;;;;2081291;28;1162;-75
2021/09/19 00:52:45;;;;;;;;;;;;;;;;;;2081906;28;1343;-76
2021/09/19 00:53:46;;;;;;;;;;;;;;;;;;2080534;28;1088;-75
2021/09/19 00:54:46;;;;;;;;;;;;;;;;;;2081397;28;1398;-75
2021/09/19 00:55:47;;;;;;;;;;;;;;;;;;2083228;28;977;-76
2021/09/19 00:56:47;;;;;;;;;;;;;;;;;;2081626;28;1270;-76
2021/09/19 00:57:49;;;;;;;;;;;;;;;;;;2082587;28;1035;-75
2021/09/19 00:58:49;;;;;;;;;;;;;;;;;;2083275;28;1038;-75
2021/09/19 00:59:50;;;;;;;;;;;;;;;;;;2082899;28;1002;-75
2021/09/19 01:00:50;;;;;;;;;;;;;;;;;;2083375;28;1044;-76
2021/09/19 01:01:51;;;;;;;;;;;;;;;;;;2083299;28;1095;-76
2021/09/19 01:02:53;;;;;;;;;;;;;;;;;;2083298;28;1263;-75
2021/09/19 01:03:56;;;;;;;;;;;;;;;;;;2084138;28;1115;-75
2021/09/19 01:05:00;;;;;;;;;;;;;;;;;;2083794;28;1264;-76
2021/09/19 01:06:00;;;;;;;;;;;;;;;;;;2082216;28;1114;-75
2021/09/19 01:07:01;;;;;;;;;;;;;;;;;;2084105;28;1225;-76
2021/09/19 01:08:01;;;;;;;;;;;;;;;;;;2083325;28;1418;-75
2021/09/19 01:09:02;;;;;;;;;;;;;;;;;;2083089;28;2931;-75
2021/09/19 01:10:03;;;;;;;;;;;;;;;;;;2082646;28;1236;-76
2021/09/19 01:11:04;;;;;;;;;;;;;;;;;;2082319;28;1130;-76
2021/09/19 01:12:04;;;;;;;;;;;;;;;;;;2084680;28;1368;-76
2021/09/19 01:13:05;;;;;;;;;;;;;;;;;;2084058;28;1073;-75
2021/09/19 01:14:05;;;;;;;;;;;;;;;;;;2084172;28;1132;-75
2021/09/19 01:15:06;;;;;;;;;;;;;;;;;;2085061;28;1066;-75
2021/09/19 01:16:07;;;;;;;;;;;;;;;;;;2083680;28;1152;-76
2021/09/19 01:17:07;;;;;;;;;;;;;;;;;;2084848;28;1026;-76
2021/09/19 01:18:08;;;;;;;;;;;;;;;;;;2082650;28;1027;-75
2021/09/19 01:19:08;;;;;;;;;;;;;;;;;;2084499;28;1305;-76
2021/09/19 01:20:13;;;;;;;;;;;;;;;;;;2079353;28;1686;-76
2021/09/19 01:21:13;;;;;;;;;;;;;;;;;;2083227;28;1129;-75
2021/09/19 01:22:14;;;;;;;;;;;;;;;;;;2085364;28;1279;-76
2021/09/19 01:23:14;;;;;;;;;;;;;;;;;;2085054;28;1099;-76
2021/09/19 01:24:15;;;;;;;;;;;;;;;;;;2083746;28;1076;-76
2021/09/19 01:25:16;;;;;;;;;;;;;;;;;;2086033;28;1011;-76
2021/09/19 01:26:17;;;;;;;;;;;;;;;;;;2084265;28;1127;-76
2021/09/19 01:27:17;;;;;;;;;;;;;;;;;;2085886;28;1104;-76
2021/09/19 01:28:18;;;;;;;;;;;;;;;;;;2086850;28;1080;-76
2021/09/19 01:29:18;;;;;;;;;;;;;;;;;;2087030;28;1989;-75
2021/09/19 01:30:19;;;;;;;;;;;;;;;;;;2087898;28;992;-75
2021/09/19 01:31:19;;;;;;;;;;;;;;;;;;2086300;28;1194;-76
2021/09/19 01:32:22;;;;;;;;;;;;;;;;;;2086414;28;1255;-75
2021/09/19 01:33:23;;;;;;;;;;;;;;;;;;2087485;28;1107;-76
2021/09/19 01:34:23;;;;;;;;;;;;;;;;;;2087511;28;1153;-76
2021/09/19 01:35:24;;;;;;;;;;;;;;;;;;2087856;28;1061;-75
2021/09/19 01:36:25;;;;;;;;;;;;;;;;;;2086234;28;1273;-75
2021/09/19 01:37:26;;;;;;;;;;;;;;;;;;2086843;28;1054;-76
2021/09/19 01:38:26;;;;;;;;;;;;;;;;;;2086895;28;1107;-75
2021/09/19 01:39:27;;;;;;;;;;;;;;;;;;2088454;28;1079;-75
2021/09/19 01:40:27;;;;;;;;;;;;;;;;;;2088536;28;1177;-76
2021/09/19 01:41:28;;;;;;;;;;;;;;;;;;2088197;28;1052;-75
2021/09/19 01:42:28;;;;;;;;;;;;;;;;;;2087574;28;1327;-76
2021/09/19 01:43:29;;;;;;;;;;;;;;;;;;2087706;28;1204;-76
2021/09/19 01:44:30;;;;;;;;;;;;;;;;;;2081544;28;1974;-76
2021/09/19 01:45:31;;;;;;;;;;;;;;;;;;2074949;28;2284;-76
2021/09/19 01:46:31;;;;;;;;;;;;;;;;;;2076302;28;1116;-76
2021/09/19 01:47:32;;;;;;;;;;;;;;;;;;2075609;28;1074;-76
2021/09/19 01:48:34;;;;;;;;;;;;;;;;;;2076357;28;1294;-76
2021/09/19 01:49:34;;;;;;;;;;;;;;;;;;2072846;28;1905;-76
2021/09/19 01:50:35;;;;;;;;;;;;;;;;;;2076842;28;2076;-75
2021/09/19 01:51:35;;;;;;;;;;;;;;;;;;2076671;28;1089;-77
2021/09/19 01:52:36;;;;;;;;;;;;;;;;;;2078208;28;1339;-76
2021/09/19 01:53:36;;;;;;;;;;;;;;;;;;2074566;28;1041;-75
2021/09/19 01:54:37;;;;;;;;;;;;;;;;;;2077964;28;1070;-75
2021/09/19 01:55:38;;;;;;;;;;;;;;;;;;2078079;28;1356;-75
2021/09/19 01:56:39;;;;;;;;;;;;;;;;;;2078419;28;1684;-76
2021/09/19 01:57:40;;;;;;;;;;;;;;;;;;2078106;28;1475;-76
2021/09/19 01:58:40;;;;;;;;;;;;;;;;;;2078865;28;1066;-75
2021/09/19 01:59:41;;;;;;;;;;;;;;;;;;2079176;28;1110;-75
2021/09/19 02:00:41;;;;;;;;;;;;;;;;;;2079963;28;1074;-75
2021/09/19 02:01:42;;;;;;;;;;;;;;;;;;2079315;28;1016;-75
2021/09/19 02:02:42;;;;;;;;;;;;;;;;;;2079278;28;1291;-76
2021/09/19 02:03:43;;;;;;;;;;;;;;;;;;2078346;28;1077;-76
2021/09/19 02:04:44;;;;;;;;;;;;;;;;;;2076407;28;1340;-76
2021/09/19 02:05:47;;;;;;;;;;;;;;;;;;2079851;28;1033;-75
2021/09/19 02:06:47;;;;;;;;;;;;;;;;;;2078963;28;1013;-76
2021/09/19 02:07:49;;;;;;;;;;;;;;;;;;2078211;28;3193;-76
2021/09/19 02:08:50;;;;;;;;;;;;;;;;;;2079886;28;1403;-76
2021/09/19 02:09:51;;;;;;;;;;;;;;;;;;2076534;28;3353;-75
2021/09/19 02:10:51;;;;;;;;;;;;;;;;;;2080647;28;1054;-76
2021/09/19 02:11:52;;;;;;;;;;;;;;;;;;2079963;28;1075;-76
2021/09/19 02:12:53;;;;;;;;;;;;;;;;;;2080541;28;1369;-75
2021/09/19 02:13:53;;;;;;;;;;;;;;;;;;2079434;28;1150;-75
2021/09/19 02:14:54;;;;;;;;;;;;;;;;;;2081178;28;1033;-75
2021/09/19 02:15:54;;;;;;;;;;;;;;;;;;2081127;28;1295;-75
2021/09/19 02:16:56;;;;;;;;;;;;;;;;;;2081535;28;1106;-76
2021/09/19 02:17:56;;;;;;;;;;;;;;;;;;2080867;28;1066;-76
2021/09/19 02:18:57;;;;;;;;;;;;;;;;;;2081433;28;1135;-76
2021/09/19 02:19:57;;;;;;;;;;;;;;;;;;2078986;28;1278;-76
2021/09/19 02:20:58;;;;;;;;;;;;;;;;;;2082396;28;1166;-76
2021/09/19 02:21:58;;;;;;;;;;;;;;;;;;2082026;28;1159;-76
2021/09/19 02:22:59;;;;;;;;;;;;;;;;;;2081636;28;1446;-76
2021/09/19 02:23:59;;;;;;;;;;;;;;;;;;2081948;28;1053;-75
2021/09/19 02:25:00;;;;;;;;;;;;;;;;;;2078756;28;1151;-75
2021/09/19 02:26:01;;;;;;;;;;;;;;;;;;2081864;28;1151;-76
2021/09/19 02:27:02;;;;;;;;;;;;;;;;;;2083263;28;1359;-75
2021/09/19 02:28:02;;;;;;;;;;;;;;;;;;2083206;28;1043;-75
2021/09/19 02:29:03;;;;;;;;;;;;;;;;;;2084037;28;1038;-75
2021/09/19 02:30:03;;;;;;;;;;;;;;;;;;2084143;28;1985;-76
2021/09/19 02:31:04;;;;;;;;;;;;;;;;;;2083628;28;1145;-75
2021/09/19 02:32:06;;;;;;;;;;;;;;;;;;2085017;28;1312;-76
2021/09/19 02:33:07;;;;;;;;;;;;;;;;;;2082807;28;1149;-76
2021/09/19 02:34:10;;;;;;;;;;;;;;;;;;2079644;28;1290;-75
2021/09/19 02:35:11;;;;;;;;;;;;;;;;;;2084274;28;1044;-75
2021/09/19 02:36:11;;;;;;;;;;;;;;;;;;2084732;28;1044;-75
2021/09/19 02:37:12;;;;;;;;;;;;;;;;;;2083864;28;1071;-76
2021/09/19 02:38:12;;;;;;;;;;;;;;;;;;2084349;28;1102;-75
2021/09/19 02:39:13;;;;;;;;;;;;;;;;;;2084401;28;1162;-76
2021/09/19 02:40:13;;;;;;;;;;;;;;;;;;2084856;28;1232;-75
2021/09/19 02:41:14;;;;;;;;;;;;;;;;;;2085738;28;1431;-75
2021/09/19 02:42:15;;;;;;;;;;;;;;;;;;2085500;28;1260;-76
2021/09/19 02:43:16;;;;;;;;;;;;;;;;;;2083699;28;1870;-76
2021/09/19 02:44:16;;;;;;;;;;;;;;;;;;2087022;28;1052;-75
2021/09/19 02:45:17;;;;;;;;;;;;;;;;;;2087644;28;1119;-75
2021/09/19 02:46:26;;;;;;;;;;;;;;;;;;2086912;28;1276;-75
2021/09/19 02:47:27;;;;;;;;;;;;;;;;;;2086133;28;1105;-76
2021/09/19 02:48:28;;;;;;;;;;;;;;;;;;2085833;28;2103;-76
2021/09/19 02:49:29;;;;;;;;;;;;;;;;;;2085036;28;1987;-75
2021/09/19 02:50:29;;;;;;;;;;;;;;;;;;2087898;28;1094;-76
2021/09/19 02:51:30;;;;;;;;;;;;;;;;;;2085822;28;1193;-75
2021/09/19 02:52:30;;;;;;;;;;;;;;;;;;2086276;28;1362;-75
2021/09/19 02:53:31;;;;;;;;;;;;;;;;;;2084408;28;2013;-75
2021/09/19 02:54:31;;;;;;;;;;;;;;;;;;2077242;28;1118;-75
2021/09/19 02:55:32;;;;;;;;;;;;;;;;;;2074794;28;1061;-75
2021/09/19 02:56:33;;;;;;;;;;;;;;;;;;2075820;28;1059;-75
2021/09/19 02:57:34;;;;;;;;;;;;;;;;;;2075132;28;1170;-76
2021/09/19 02:58:34;;;;;;;;;;;;;;;;;;2069909;28;1379;-76
2021/09/19 02:59:35;;;;;;;;;;;;;;;;;;2076014;28;1081;-75
2021/09/19 03:00:36;;;;;;;;;;;;;;;;;;2076218;28;1002;-75
2021/09/19 03:01:37;;;;;;;;;;;;;;;;;;2075638;28;1061;-76
2021/09/19 03:02:37;;;;;;;;;;;;;;;;;;2076486;28;1420;-76
2021/09/19 03:03:38;;;;;;;;;;;;;;;;;;2076449;28;1172;-75
2021/09/19 03:04:38;;;;;;;;;;;;;;;;;;2074629;28;1958;-75
2021/09/19 03:05:39;;;;;;;;;;;;;;;;;;2074396;28;1246;-76
2021/09/19 03:06:39;;;;;;;;;;;;;;;;;;2076469;28;1181;-76
2021/09/19 03:07:40;;;;;;;;;;;;;;;;;;2076918;28;3157;-76
2021/09/19 03:08:40;;;;;;;;;;;;;;;;;;2077709;28;1506;-76
2021/09/19 03:09:41;;;;;;;;;;;;;;;;;;2075158;28;3209;-75
2021/09/19 03:10:42;;;;;;;;;;;;;;;;;;2077573;28;1130;-75
2021/09/19 03:11:43;;;;;;;;;;;;;;;;;;2078754;28;1128;-75
2021/09/19 03:12:43;;;;;;;;;;;;;;;;;;2077857;28;1397;-76
2021/09/19 03:13:45;;;;;;;;;;;;;;;;;;2077511;28;938;-76
2021/09/19 03:14:45;;;;;;;;;;;;;;;;;;2078497;28;1152;-75
2021/09/19 03:15:46;;;;;;;;;;;;;;;;;;2078992;28;1019;-75
2021/09/19 03:16:46;;;;;;;;;;;;;;;;;;2078588;28;1293;-75
2021/09/19 03:17:48;;;;;;;;;;;;;;;;;;2079583;28;1100;-76
2021/09/19 03:18:48;;;;;;;;;;;;;;;;;;2079252;28;1511;-76
2021/09/19 03:19:49;;;;;;;;;;;;;;;;;;2076552;28;1178;-75
2021/09/19 03:20:50;;;;;;;;;;;;;;;;;;2079725;28;1097;-76
2021/09/19 03:21:50;;;;;;;;;;;;;;;;;;2078544;28;1475;-75
2021/09/19 03:22:51;;;;;;;;;;;;;;;;;;2079668;28;1343;-76
2021/09/19 03:23:51;;;;;;;;;;;;;;;;;;2079463;28;2011;-76
2021/09/19 03:24:52;;;;;;;;;;;;;;;;;;2077271;28;994;-76
2021/09/19 03:25:52;;;;;;;;;;;;;;;;;;2080197;28;1199;-75
2021/09/19 03:26:54;;;;;;;;;;;;;;;;;;2080840;28;1299;-76
2021/09/19 03:27:54;;;;;;;;;;;;;;;;;;2081464;28;1048;-76
2021/09/19 03:28:55;;;;;;;;;;;;;;;;;;2081780;28;1197;-75
2021/09/19 03:29:55;;;;;;;;;;;;;;;;;;2082023;28;2031;-76
2021/09/19 03:30:58;;;;;;;;;;;;;;;;;;2081728;28;1033;-76
2021/09/19 03:31:58;;;;;;;;;;;;;;;;;;2081275;28;1145;-76
2021/09/19 03:32:59;;;;;;;;;;;;;;;;;;2081834;28;1374;-76
2021/09/19 03:33:59;;;;;;;;;;;;;;;;;;2080803;28;1166;-76
2021/09/19 03:35:00;;;;;;;;;;;;;;;;;;2083583;28;1174;-75
2021/09/19 03:36:01;;;;;;;;;;;;;;;;;;2082777;28;1097;-75
2021/09/19 03:37:02;;;;;;;;;;;;;;;;;;2083153;28;1170;-75
2021/09/19 03:38:02;;;;;;;;;;;;;;;;;;2084366;28;1052;-75
2021/09/19 03:39:03;;;;;;;;;;;;;;;;;;2082478;28;1122;-75
2021/09/19 03:40:03;;;;;;;;;;;;;;;;;;2084598;28;1291;-75
2021/09/19 03:41:04;;;;;;;;;;;;;;;;;;2083438;28;1063;-75
2021/09/19 03:42:40;;;;;;;;;;;;;;;;;;2139045;27;1583;-76
2021/09/19 03:43:40;;;;;;;;;;;;;;;;;;2136105;27;1655;-75
2021/09/19 03:44:41;;;;;;;;;;;;;;;;;;2138686;27;1102;-76
2021/09/19 03:45:43;;;;;;;;;;;;;;;;;;2138237;27;1100;-75
2021/09/19 03:46:44;;;;;;;;;;;;;;;;;;2137234;27;2061;-76
2021/09/19 03:47:44;;;;;;;;;;;;;;;;;;2136688;27;1436;-76
2021/09/19 03:48:45;;;;;;;;;;;;;;;;;;2138783;27;1164;-75
2021/09/19 03:49:45;;;;;;;;;;;;;;;;;;2138025;27;1056;-75
2021/09/19 03:50:46;;;;;;;;;;;;;;;;;;2139000;27;1705;-75
2021/09/19 03:51:46;;;;;;;;;;;;;;;;;;2136684;27;2163;-76
2021/09/19 03:52:47;;;;;;;;;;;;;;;;;;2137990;27;1339;-76
2021/09/19 03:53:48;;;;;;;;;;;;;;;;;;2136657;27;1292;-75
2021/09/19 03:54:49;;;;;;;;;;;;;;;;;;2137354;27;1068;-75
2021/09/19 03:55:49;;;;;;;;;;;;;;;;;;2139080;27;1092;-76
2021/09/19 03:56:50;;;;;;;;;;;;;;;;;;2138500;27;1141;-75
2021/09/19 03:57:51;;;;;;;;;;;;;;;;;;2138437;27;1089;-75
2021/09/19 03:58:52;;;;;;;;;;;;;;;;;;2137740;27;1087;-75
2021/09/19 03:59:56;;;;;;;;;;;;;;;;;;2138827;27;1358;-76
2021/09/19 04:00:56;;;;;;;;;;;;;;;;;;2138291;27;1106;-76
2021/09/19 04:01:57;;;;;;;;;;;;;;;;;;2139271;27;1984;-75
2021/09/19 04:02:57;;;;;;;;;;;;;;;;;;2138434;27;1429;-75
2021/09/19 04:03:58;;;;;;;;;;;;;;;;;;2137902;27;1077;-75
2021/09/19 04:04:58;;;;;;;;;;;;;;;;;;2139037;27;1035;-76
2021/09/19 04:06:00;;;;;;;;;;;;;;;;;;2138622;27;1088;-76
2021/09/19 04:07:00;;;;;;;;;;;;;;;;;;2138355;27;987;-76
2021/09/19 04:08:01;;;;;;;;;;;;;;;;;;2138370;27;3653;-75
2021/09/19 04:09:01;;;;;;;;;;;;;;;;;;2139275;27;1490;-76
2021/09/19 04:10:02;;;;;;;;;;;;;;;;;;2139385;27;1222;-76
2021/09/19 04:11:02;;;;;;;;;;;;;;;;;;2137879;27;1044;-76
2021/09/19 04:12:03;;;;;;;;;;;;;;;;;;2139042;27;1241;-75
2021/09/19 04:13:03;;;;;;;;;;;;;;;;;;2137991;27;1075;-75
2021/09/19 04:14:04;;;;;;;;;;;;;;;;;;2138517;27;1091;-75
2021/09/19 04:15:05;;;;;;;;;;;;;;;;;;2138685;27;1133;-75
2021/09/19 04:16:06;;;;;;;;;;;;;;;;;;2137594;27;1052;-76
2021/09/19 04:17:06;;;;;;;;;;;;;;;;;;2138232;27;1048;-75
2021/09/19 04:18:07;;;;;;;;;;;;;;;;;;2139064;27;1028;-75
2021/09/19 04:19:08;;;;;;;;;;;;;;;;;;2138299;27;1079;-75
2021/09/19 04:20:09;;;;;;;;;;;;;;;;;;2138427;27;1377;-75
2021/09/19 04:21:09;;;;;;;;;;;;;;;;;;2137912;27;1119;-76
2021/09/19 04:22:10;;;;;;;;;;;;;;;;;;2139156;27;1929;-75
2021/09/19 04:23:13;;;;;;;;;;;;;;;;;;2138445;27;1046;-75
2021/09/19 04:24:13;;;;;;;;;;;;;;;;;;2138988;27;1040;-75
2021/09/19 04:25:14;;;;;;;;;;;;;;;;;;2137427;27;1085;-75
2021/09/19 04:26:14;;;;;;;;;;;;;;;;;;2138559;27;1039;-75
2021/09/19 04:27:15;;;;;;;;;;;;;;;;;;2138416;27;1044;-75
2021/09/19 04:28:15;;;;;;;;;;;;;;;;;;2138388;27;1082;-75
2021/09/19 04:29:16;;;;;;;;;;;;;;;;;;2138087;27;1041;-76
2021/09/19 04:30:17;;;;;;;;;;;;;;;;;;2138892;27;1122;-75
2021/09/19 04:31:18;;;;;;;;;;;;;;;;;;2137242;27;1458;-75
2021/09/19 04:32:18;;;;;;;;;;;;;;;;;;2137398;27;1378;-75
2021/09/19 04:33:20;;;;;;;;;;;;;;;;;;2136495;27;3986;-76
2021/09/19 04:34:20;;;;;;;;;;;;;;;;;;2137492;27;4075;-76
2021/09/19 04:35:21;;;;;;;;;;;;;;;;;;2137171;27;3863;-75
2021/09/19 04:36:21;;;;;;;;;;;;;;;;;;2135852;27;3848;-75
2021/09/19 04:37:22;;;;;;;;;;;;;;;;;;2138259;27;4069;-75
2021/09/19 04:38:22;;;;;;;;;;;;;;;;;;2137642;27;3930;-76
2021/09/19 04:39:28;;;;;;;;;;;;;;;;;;2138809;27;1091;-76
2021/09/19 04:40:28;;;;;;;;;;;;;;;;;;2137790;27;1109;-76
2021/09/19 04:41:29;;;;;;;;;;;;;;;;;;2136754;27;4098;-75
2021/09/19 04:42:29;;;;;;;;;;;;;;;;;;2137287;27;3907;-75
2021/09/19 04:43:30;;;;;;;;;;;;;;;;;;2136267;27;3375;-75
2021/09/19 04:44:30;;;;;;;;;;;;;;;;;;2130617;27;4442;-76
2021/09/19 04:45:31;;;;;;;;;;;;;;;;;;2135330;27;1060;-76
2021/09/19 04:46:31;;;;;;;;;;;;;;;;;;2134880;27;4035;-76
2021/09/19 04:47:33;;;;;;;;;;;;;;;;;;2137032;27;4615;-75
2021/09/19 04:48:33;;;;;;;;;;;;;;;;;;2137655;27;3075;-76
2021/09/19 04:49:34;;;;;;;;;;;;;;;;;;2136968;27;3784;-75
2021/09/19 04:50:34;;;;;;;;;;;;;;;;;;2137059;27;2673;-76
2021/09/19 04:51:35;;;;;;;;;;;;;;;;;;2136346;27;3365;-76
2021/09/19 04:52:35;;;;;;;;;;;;;;;;;;2135383;27;4303;-76
2021/09/19 04:53:36;;;;;;;;;;;;;;;;;;2131600;27;3997;-75
2021/09/19 04:54:36;;;;;;;;;;;;;;;;;;2131020;27;1843;-75
2021/09/19 04:55:37;;;;;;;;;;;;;;;;;;2128856;27;2038;-75
2021/09/19 04:56:38;;;;;;;;;;;;;;;;;;2127790;27;1784;-75
2021/09/19 04:57:39;;;;;;;;;;;;;;;;;;2132066;27;1229;-76
2021/09/19 04:58:39;;;;;;;;;;;;;;;;;;2131982;27;3275;-76
2021/09/19 04:59:40;;;;;;;;;;;;;;;;;;2131803;27;2366;-75
2021/09/19 05:00:41;;;;;;;;;;;;;;;;;;2130465;27;2042;-76
2021/09/19 05:01:41;;;;;;;;;;;;;;;;;;2131099;27;2632;-76
2021/09/19 05:02:42;;;;;;;;;;;;;;;;;;2131531;27;1871;-76
2021/09/19 05:03:42;;;;;;;;;;;;;;;;;;2131940;27;1278;-75
2021/09/19 05:04:43;;;;;;;;;;;;;;;;;;2132023;27;2463;-75
2021/09/19 05:05:44;;;;;;;;;;;;;;;;;;2132122;27;3540;-76
2021/09/19 05:06:45;;;;;;;;;;;;;;;;;;2128552;27;5578;-76
2021/09/19 05:07:45;;;;;;;;;;;;;;;;;;2123829;27;5764;-76
2021/09/19 05:08:46;;;;;;;;;;;;;;;;;;2129008;27;4550;-76
2021/09/19 05:09:46;;;;;;;;;;;;;;;;;;2131823;27;1942;-75
2021/09/19 05:10:47;;;;;;;;;;;;;;;;;;2129180;27;2039;-75
2021/09/19 05:11:47;;;;;;;;;;;;;;;;;;2127095;27;2913;-76
2021/09/19 05:12:48;;;;;;;;;;;;;;;;;;2130614;27;3904;-75
2021/09/19 05:13:50;;;;;;;;;;;;;;;;;;2130568;27;4620;-75
2021/09/19 05:14:54;;;;;;;;;;;;;;;;;;2128276;27;4252;-76
2021/09/19 05:15:54;;;;;;;;;;;;;;;;;;2125592;27;3261;-76
2021/09/19 05:16:55;;;;;;;;;;;;;;;;;;2126100;27;3019;-76
2021/09/19 05:17:56;;;;;;;;;;;;;;;;;;2127403;27;4273;-75
2021/09/19 05:18:57;;;;;;;;;;;;;;;;;;2124671;27;3939;-75
2021/09/19 05:19:57;;;;;;;;;;;;;;;;;;2128875;27;4288;-75
2021/09/19 05:21:00;;;;;;;;;;;;;;;;;;2128457;27;4258;-76
2021/09/19 05:22:01;;;;;;;;;;;;;;;;;;2130874;27;4399;-75
2021/09/19 05:23:01;;;;;;;;;;;;;;;;;;2128929;27;2133;-75
2021/09/19 05:24:02;;;;;;;;;;;;;;;;;;2131885;27;2213;-76
2021/09/19 05:25:02;;;;;;;;;;;;;;;;;;2130631;27;2669;-74
2021/09/19 05:26:03;;;;;;;;;;;;;;;;;;2131674;27;1080;-75
2021/09/19 05:27:04;;;;;;;;;;;;;;;;;;2130911;27;4334;-76
2021/09/19 05:28:05;;;;;;;;;;;;;;;;;;2128740;27;4008;-76
2021/09/19 05:29:05;;;;;;;;;;;;;;;;;;2130573;27;2325;-75
2021/09/19 05:30:06;;;;;;;;;;;;;;;;;;2131498;27;1772;-76
2021/09/19 05:31:06;;;;;;;;;;;;;;;;;;2131417;27;4312;-75
2021/09/19 05:32:07;;;;;;;;;;;;;;;;;;2126513;27;4231;-75
2021/09/19 05:33:07;;;;;;;;;;;;;;;;;;2129004;27;4676;-76
2021/09/19 05:34:08;;;;;;;;;;;;;;;;;;2129081;27;4324;-76
2021/09/19 05:35:09;;;;;;;;;;;;;;;;;;2131765;27;2543;-75
2021/09/19 05:36:10;;;;;;;;;;;;;;;;;;2130579;27;1905;-76
2021/09/19 05:37:10;;;;;;;;;;;;;;;;;;2131788;27;3012;-75
2021/09/19 05:38:11;;;;;;;;;;;;;;;;;;2129738;27;4416;-75
2021/09/19 05:39:11;;;;;;;;;;;;;;;;;;2131006;27;4434;-76
2021/09/19 05:40:14;;;;;;;;;;;;;;;;;;2129750;27;3346;-75
2021/09/19 05:41:15;;;;;;;;;;;;;;;;;;2130123;27;4240;-75
2021/09/19 05:42:15;;;;;;;;;;;;;;;;;;2121836;27;3643;-76
2021/09/19 05:43:16;;;;;;;;;;;;;;;;;;2127361;27;1821;-76
2021/09/19 05:44:16;;;;;;;;;;;;;;;;;;2129953;27;3761;-75
2021/09/19 05:45:17;;;;;;;;;;;;;;;;;;2130546;27;3030;-75
2021/09/19 05:46:18;;;;;;;;;;;;;;;;;;2130486;27;2349;-75
2021/09/19 05:47:18;;;;;;;;;;;;;;;;;;2129309;27;4247;-76
2021/09/19 05:48:20;;;;;;;;;;;;;;;;;;2130450;27;4306;-75
2021/09/19 05:49:20;;;;;;;;;;;;;;;;;;2131897;27;2955;-76
2021/09/19 05:50:21;;;;;;;;;;;;;;;;;;2129788;27;4129;-76
2021/09/19 05:51:21;;;;;;;;;;;;;;;;;;2130359;27;4372;-76
2021/09/19 05:52:25;;;;;;;;;;;;;;;;;;2126200;27;3325;-76
2021/09/19 05:53:25;;;;;;;;;;;;;;;;;;2128320;27;3542;-76
2021/09/19 05:54:27;;;;;;;;;;;;;;;;;;2128863;27;3488;-76
2021/09/19 05:55:27;;;;;;;;;;;;;;;;;;2130791;27;3184;-76
2021/09/19 05:56:28;;;;;;;;;;;;;;;;;;2131554;27;1065;-76
2021/09/19 05:57:29;;;;;;;;;;;;;;;;;;2130822;27;2437;-76
2021/09/19 05:58:29;;;;;;;;;;;;;;;;;;2132406;27;1142;-75
2021/09/19 05:59:32;;;;;;;;;;;;;;;;;;2130324;27;3989;-75
2021/09/19 06:00:32;;;;;;;;;;;;;;;;;;2130270;27;4357;-75
2021/09/19 06:01:33;;;;;;;;;;;;;;;;;;2131058;27;2200;-75
2021/09/19 06:02:33;;;;;;;;;;;;;;;;;;2130382;27;2681;-76
2021/09/19 06:03:34;;;;;;;;;;;;;;;;;;2130063;27;2291;-75
2021/09/19 06:04:35;;;;;;;;;;;;;;;;;;2130288;27;2455;-75
2021/09/19 06:05:36;;;;;;;;;;;;;;;;;;2129061;27;2700;-76
2021/09/19 06:06:36;;;;;;;;;;;;;;;;;;2132146;27;2230;-75
2021/09/19 06:07:37;;;;;;;;;;;;;;;;;;2131642;27;1298;-75
2021/09/19 06:08:37;;;;;;;;;;;;;;;;;;2131450;27;2737;-75
2021/09/19 06:09:38;;;;;;;;;;;;;;;;;;2130165;27;4056;-75
2021/09/19 06:10:38;;;;;;;;;;;;;;;;;;2132242;27;3601;-75
2021/09/19 06:11:41;;;;;;;;;;;;;;;;;;2130942;27;3893;-77
2021/09/19 06:12:41;;;;;;;;;;;;;;;;;;2131113;27;1935;-75
2021/09/19 06:13:42;;;;;;;;;;;;;;;;;;2132179;27;1059;-75
2021/09/19 06:14:43;;;;;;;;;;;;;;;;;;2128138;27;2502;-75
2021/09/19 06:15:44;;;;;;;;;;;;;;;;;;2129426;27;4443;-76
2021/09/19 06:16:44;;;;;;;;;;;;;;;;;;2130717;27;1040;-75
2021/09/19 06:17:45;;;;;;;;;;;;;;;;;;2130299;27;2326;-76
2021/09/19 06:18:45;;;;;;;;;;;;;;;;;;2130812;27;2972;-75
2021/09/19 06:19:46;;;;;;;;;;;;;;;;;;2129607;27;4298;-76
2021/09/19 06:20:47;;;;;;;;;;;;;;;;;;2130057;27;4348;-76
2021/09/19 06:21:47;;;;;;;;;;;;;;;;;;2131703;27;1275;-75
2021/09/19 06:22:48;;;;;;;;;;;;;;;;;;2128844;27;1992;-75
2021/09/19 06:23:48;;;;;;;;;;;;;;;;;;2131606;27;2429;-75
2021/09/19 06:24:50;;;;;;;;;;;;;;;;;;2129456;27;2896;-75
2021/09/19 06:25:52;;;;;;;;;;;;;;;;;;2130583;27;4065;-76
2021/09/19 06:26:54;;;;;;;;;;;;;;;;;;2131388;27;1105;-75
2021/09/19 06:27:55;;;;;;;;;;;;;;;;;;2131184;27;3657;-76
2021/09/19 06:28:55;;;;;;;;;;;;;;;;;;2131922;27;2640;-75
2021/09/19 06:29:56;;;;;;;;;;;;;;;;;;2130486;27;4379;-75
2021/09/19 06:30:58;;;;;;;;;;;;;;;;;;2128727;27;2824;-76
2021/09/19 06:31:59;;;;;;;;;;;;;;;;;;2131070;27;2161;-75
2021/09/19 06:32:59;;;;;;;;;;;;;;;;;;2130255;27;2548;-75
2021/09/19 06:34:01;;;;;;;;;;;;;;;;;;2130922;27;1010;-76
2021/09/19 06:35:01;;;;;;;;;;;;;;;;;;2130792;27;2605;-75
2021/09/19 06:36:02;;;;;;;;;;;;;;;;;;2130098;27;2753;-76
2021/09/19 06:37:02;;;;;;;;;;;;;;;;;;2129544;27;3030;-75
2021/09/19 06:38:03;;;;;;;;;;;;;;;;;;2128985;27;2016;-75
2021/09/19 06:39:03;;;;;;;;;;;;;;;;;;2131253;27;1207;-75
2021/09/19 06:40:04;;;;;;;;;;;;;;;;;;2130516;27;4158;-76
2021/09/19 06:41:04;;;;;;;;;;;;;;;;;;2129882;27;1150;-75
2021/09/19 06:42:05;;;;;;;;;;;;;;;;;;2130473;27;2133;-76
2021/09/19 06:43:06;;;;;;;;;;;;;;;;;;2127983;27;4364;-75
2021/09/19 06:44:07;;;;;;;;;;;;;;;;;;2129235;27;4068;-76
2021/09/19 06:45:07;;;;;;;;;;;;;;;;;;2129478;27;2957;-75
2021/09/19 06:46:08;;;;;;;;;;;;;;;;;;2131857;27;1074;-75
2021/09/19 06:47:08;;;;;;;;;;;;;;;;;;2129900;27;1965;-75
2021/09/19 06:48:09;;;;;;;;;;;;;;;;;;2128925;27;4124;-75
2021/09/19 06:49:09;;;;;;;;;;;;;;;;;;2128840;27;4194;-75
2021/09/19 06:50:10;;;;;;;;;;;;;;;;;;2131218;27;1069;-75
2021/09/19 06:51:11;;;;;;;;;;;;;;;;;;2130869;27;1115;-75
2021/09/19 06:52:12;;;;;;;;;;;;;;;;;;2131501;27;1437;-75
2021/09/19 06:53:13;;;;;;;;;;;;;;;;;;2131402;27;1178;-75
2021/09/19 06:54:13;;;;;;;;;;;;;;;;;;2131656;27;1064;-75
2021/09/19 06:55:14;;;;;;;;;;;;;;;;;;2130537;27;4343;-75
2021/09/19 06:56:14;;;;;;;;;;;;;;;;;;2130072;27;2066;-75
2021/09/19 06:57:15;;;;;;;;;;;;;;;;;;2130323;27;1222;-75
2021/09/19 06:58:15;;;;;;;;;;;;;;;;;;2131383;27;1759;-76
2021/09/19 06:59:17;;;;;;;;;;;;;;;;;;2124885;27;1266;-75
2021/09/19 07:00:17;;;;;;;;;;;;;;;;;;2129423;27;1329;-75
2021/09/19 07:01:21;;;;;;;;;;;;;;;;;;2129033;27;1024;-75
2021/09/19 07:02:21;;;;;;;;;;;;;;;;;;2127848;27;4141;-75